createdAt,value
2022-11-17T00:01:39.457Z,99000.03
2022-11-17T00:07:07.040Z,99000.31
2022-11-17T00:12:51.834Z,98994.84
2022-11-17T00:18:35.383Z,99001.28
2022-11-17T00:24:02.568Z,98997.03
2022-11-17T00:29:31.398Z,98990.59
2022-11-17T00:35:01.044Z,98989.38
2022-11-17T00:40:26.208Z,98994.03
2022-11-17T00:45:49.724Z,98975.84
2022-11-17T00:51:15.956Z,98980.91
2022-11-17T00:56:40.866Z,98972.53
2022-11-17T01:02:03.845Z,98969.44
2022-11-17T01:07:31.899Z,98978.03
2022-11-17T01:12:58.220Z,98978.69
2022-11-17T01:18:25.355Z,98963.41
2022-11-17T01:23:57.643Z,98969.66
2022-11-17T01:29:20.526Z,98946.47
2022-11-17T01:34:59.997Z,98932.13
2022-11-17T01:40:28.226Z,98929.53
2022-11-17T01:46:07.061Z,98925.41
2022-11-17T01:51:41.493Z,98927.72
2022-11-17T01:57:19.631Z,98918.84
2022-11-17T02:02:46.050Z,98917.75
2022-11-17T02:08:14.441Z,98914.22
2022-11-17T02:13:42.537Z,98925.53
2022-11-17T02:19:16.068Z,98936.63
2022-11-17T02:25:08.272Z,98928.84
2022-11-17T02:30:44.233Z,98913.00
2022-11-17T02:36:12.960Z,98918.69
2022-11-17T02:41:51.873Z,98920.91
2022-11-17T02:47:32.984Z,98920.91
2022-11-17T02:52:57.547Z,98920.50
2022-11-17T02:58:21.714Z,98912.44
2022-11-17T03:04:02.673Z,98904.63
2022-11-17T03:09:45.588Z,98893.69
2022-11-17T03:15:20.104Z,98891.78
2022-11-17T03:21:13.311Z,98879.66
2022-11-17T03:26:56.495Z,98892.75
2022-11-17T03:32:41.308Z,98888.13
2022-11-17T03:38:24.215Z,98887.31
2022-11-17T03:44:06.414Z,98890.16
2022-11-17T03:49:37.492Z,98872.81
2022-11-17T03:55:27.613Z,98864.63
2022-11-17T04:00:58.257Z,98870.63
2022-11-17T04:06:24.643Z,98849.47
2022-11-17T04:12:13.634Z,98851.66
2022-11-17T04:17:39.421Z,98846.88
2022-11-17T04:23:12.934Z,98845.75
2022-11-17T04:28:43.894Z,98855.06
2022-11-17T04:34:16.065Z,98851.78
2022-11-17T04:39:43.704Z,98847.66
2022-11-17T04:45:12.208Z,98850.53
2022-11-17T04:56:24.954Z,98837.84
2022-11-17T05:02:08.563Z,98837.00
2022-11-17T05:07:37.005Z,98831.97
2022-11-17T05:13:30.423Z,98821.44
2022-11-17T05:19:14.556Z,98831.41
2022-11-17T05:24:41.223Z,98825.28
2022-11-17T05:30:19.404Z,98802.47
2022-11-17T05:35:49.526Z,98802.50
2022-11-17T05:41:17.928Z,98803.00
2022-11-17T05:46:48.966Z,98810.53
2022-11-17T05:52:13.395Z,98786.66
2022-11-17T05:57:37.768Z,98773.41
2022-11-17T06:03:07.029Z,98764.66
2022-11-17T06:08:37.736Z,98745.72
2022-11-17T06:14:11.438Z,98737.94
2022-11-17T06:19:43.728Z,98726.34
2022-11-17T06:25:23.028Z,98723.75
2022-11-17T06:30:49.474Z,98725.78
2022-11-17T06:36:21.816Z,98720.31
2022-11-17T06:41:47.320Z,98721.94
2022-11-17T06:47:13.084Z,98710.09
2022-11-17T06:52:44.609Z,98722.63
2022-11-17T06:58:24.825Z,98733.00
2022-11-17T07:04:05.274Z,98722.38
2022-11-17T07:09:28.101Z,98718.94
2022-11-17T07:15:01.519Z,98722.78
2022-11-17T07:20:28.767Z,98728.75
2022-11-17T07:26:03.510Z,98738.44
2022-11-17T07:31:44.538Z,98745.53
2022-11-17T07:37:23.371Z,98741.97
2022-11-17T07:42:53.654Z,98726.41
2022-11-17T07:48:25.643Z,98715.75
2022-11-17T07:54:04.820Z,98726.91
2022-11-17T07:59:33.125Z,98710.69
2022-11-17T08:04:59.774Z,98707.38
2022-11-17T08:10:27.971Z,98722.25
2022-11-17T08:16:15.014Z,98696.97
2022-11-17T08:21:44.663Z,98695.72
2022-11-17T08:27:12.223Z,98692.81
2022-11-17T08:32:36.614Z,98688.16
2022-11-17T08:38:06.112Z,98678.31
2022-11-17T08:43:30.592Z,98673.81
2022-11-17T08:49:04.267Z,98687.75
2022-11-17T08:54:36.904Z,98683.34
2022-11-17T09:00:06.197Z,98678.63
2022-11-17T09:05:43.309Z,98671.34
2022-11-17T09:11:26.346Z,98679.25
2022-11-17T09:17:02.052Z,98664.63
2022-11-17T09:22:25.484Z,98671.75
2022-11-17T09:28:03.516Z,98684.00
2022-11-17T09:33:27.097Z,98690.31
2022-11-17T09:38:52.163Z,98683.06
2022-11-17T09:44:54.732Z,98683.66
2022-11-17T09:50:38.750Z,98675.59
2022-11-17T09:56:10.087Z,98672.31
2022-11-17T10:01:34.994Z,98668.63
2022-11-17T10:07:05.476Z,98661.63
2022-11-17T10:12:45.728Z,98654.00
2022-11-17T10:18:22.608Z,98630.38
2022-11-17T10:24:01.174Z,98618.88
2022-11-17T10:29:28.940Z,98631.06
2022-11-17T10:34:59.025Z,98626.22
2022-11-17T10:40:26.442Z,98603.69
2022-11-17T10:46:17.524Z,98602.53
2022-11-17T10:52:22.911Z,98598.19
2022-11-17T10:57:57.437Z,98610.44
2022-11-17T11:03:34.820Z,98604.03
2022-11-17T11:09:07.559Z,98589.25
2022-11-17T11:14:57.191Z,98589.56
2022-11-17T11:20:22.840Z,98589.41
2022-11-17T11:25:53.285Z,98578.88
2022-11-17T11:31:30.709Z,98582.16
2022-11-17T11:37:12.062Z,98564.25
2022-11-17T11:42:57.085Z,98561.94
2022-11-17T11:48:41.431Z,98563.81
2022-11-17T11:54:18.368Z,98551.41
2022-11-17T12:00:03.769Z,98547.91
2022-11-17T12:05:38.488Z,98535.31
2022-11-17T12:17:27.011Z,98538.63
2022-11-17T12:23:06.619Z,98543.91
2022-11-17T12:28:51.448Z,98528.53
2022-11-17T12:34:47.139Z,98536.31
2022-11-17T12:40:36.481Z,98528.22
2022-11-17T12:46:30.420Z,98523.41
2022-11-17T12:52:11.454Z,98526.97
2022-11-17T12:57:43.318Z,98531.09
2022-11-17T13:03:19.005Z,98523.69
2022-11-17T13:09:05.171Z,98515.56
2022-11-17T13:14:32.340Z,98526.50
2022-11-17T13:20:12.647Z,98518.38
2022-11-17T13:25:44.303Z,98519.84
2022-11-17T13:31:17.007Z,98513.69
2022-11-17T13:37:12.960Z,98511.22
2022-11-17T13:42:46.975Z,98496.28
2022-11-17T13:54:26.943Z,98503.63
2022-11-17T14:00:04.941Z,98505.56
2022-11-17T14:05:31.475Z,98500.06
2022-11-17T14:11:16.266Z,98492.38
2022-11-17T14:16:52.005Z,98501.16
2022-11-17T14:22:31.967Z,98499.41
2022-11-17T14:27:58.962Z,98507.19
2022-11-17T14:33:29.857Z,98514.19
2022-11-17T14:38:59.289Z,98503.94
2022-11-17T14:44:24.824Z,98503.56
2022-11-17T14:49:58.755Z,98508.78
2022-11-17T14:55:56.196Z,98499.66
2022-11-17T15:01:34.933Z,98504.06
2022-11-17T15:07:06.404Z,98496.41
2022-11-17T15:12:41.705Z,98504.41
2022-11-17T15:18:13.954Z,98507.66
2022-11-17T15:23:42.779Z,98518.22
2022-11-17T15:29:20.829Z,98525.22
2022-11-17T15:34:52.572Z,98530.94
2022-11-17T15:40:24.856Z,98531.06
2022-11-17T15:45:52.746Z,98532.56
2022-11-17T15:51:23.071Z,98533.00
2022-11-17T15:56:58.687Z,98534.00
2022-11-17T16:02:37.044Z,98535.81
2022-11-17T16:08:00.790Z,98532.06
2022-11-17T16:13:30.973Z,98529.84
2022-11-17T16:18:56.583Z,98522.53
2022-11-17T16:24:40.359Z,98513.75
2022-11-17T16:30:23.981Z,98506.91
2022-11-17T16:35:51.987Z,98503.28
2022-11-17T16:41:35.342Z,98513.06
2022-11-17T16:47:09.391Z,98516.47
2022-11-17T16:52:44.197Z,98513.84
2022-11-17T16:58:11.811Z,98511.56
2022-11-17T17:03:54.452Z,98515.59
2022-11-17T17:09:27.854Z,98513.00
2022-11-17T17:15:11.896Z,98518.91
2022-11-17T17:21:09.990Z,98519.38
2022-11-17T17:26:42.050Z,98508.31
2022-11-17T17:38:11.541Z,98516.28
2022-11-17T17:43:41.422Z,98526.69
2022-11-17T17:49:10.687Z,98537.75
2022-11-17T17:55:07.136Z,98540.84
2022-11-17T18:00:34.003Z,98551.91
2022-11-17T18:06:11.666Z,98534.38
2022-11-17T18:11:37.370Z,98532.91
2022-11-17T18:17:19.499Z,98541.50
2022-11-17T18:22:47.037Z,98538.75
2022-11-17T18:28:22.678Z,98554.03
2022-11-17T18:34:02.472Z,98561.19
2022-11-17T18:39:30.231Z,98551.56
2022-11-17T18:45:09.582Z,98553.00
2022-11-17T18:51:12.289Z,98560.91
2022-11-17T18:56:36.617Z,98566.75
2022-11-17T19:02:12.340Z,98570.09
2022-11-17T19:08:06.882Z,98561.97
2022-11-17T19:13:57.404Z,98552.09
2022-11-17T19:19:28.023Z,98551.38
2022-11-17T19:24:59.196Z,98558.84
2022-11-17T19:30:24.918Z,98565.75
2022-11-17T19:36:27.524Z,98552.22
2022-11-17T19:42:01.785Z,98550.91
2022-11-17T19:47:45.523Z,98562.03
2022-11-17T19:53:16.479Z,98562.53
2022-11-17T19:58:50.415Z,98552.50
2022-11-17T20:04:14.544Z,98550.25
2022-11-17T20:09:56.253Z,98563.28
2022-11-17T20:27:38.229Z,98576.19
2022-11-17T20:33:22.931Z,98583.50
2022-11-17T20:38:58.983Z,98580.44
2022-11-17T20:44:26.490Z,98581.47
2022-11-17T20:49:51.019Z,98589.19
2022-11-17T20:55:29.371Z,98590.25
2022-11-17T21:01:00.656Z,98582.53
2022-11-17T21:06:29.730Z,98582.47
2022-11-17T21:12:03.668Z,98576.91
2022-11-17T21:17:44.804Z,98578.41
2022-11-17T21:23:08.049Z,98584.25
2022-11-17T21:28:38.637Z,98580.81
2022-11-17T21:34:04.427Z,98598.06
2022-11-17T21:39:40.089Z,98613.56
2022-11-17T21:45:09.697Z,98627.75
2022-11-17T21:50:44.316Z,98628.16
2022-11-17T21:56:15.571Z,98626.00
2022-11-17T22:01:43.115Z,98627.47
2022-11-17T22:07:12.188Z,98612.31
2022-11-17T22:12:36.513Z,98610.97
2022-11-17T22:18:11.536Z,98616.09
2022-11-17T22:24:09.588Z,98607.19
2022-11-17T22:29:37.840Z,98608.66
2022-11-17T22:35:02.732Z,98628.25
2022-11-17T22:40:29.764Z,98643.97
2022-11-17T22:46:01.396Z,98649.19
2022-11-17T22:51:50.390Z,98646.22
2022-11-17T22:57:16.551Z,98660.59
2022-11-17T23:02:42.733Z,98662.09
2022-11-17T23:08:10.157Z,98672.63
2022-11-17T23:13:53.401Z,98667.59
2022-11-17T23:19:25.274Z,98669.66
2022-11-17T23:30:45.169Z,98680.06
2022-11-17T23:36:23.039Z,98671.28
2022-11-17T23:42:07.141Z,98675.16
2022-11-17T23:47:39.157Z,98678.59
2022-11-17T23:53:07.637Z,98684.63
2022-11-17T23:58:43.777Z,98673.41
